sensor_id;sensor_type;location;lat;lon;timestamp;temperature;humidity
52765;DHT22;38650;44.536;18.664;2023-04-24T00:00:31;16.00;95.00
52765;DHT22;38650;44.536;18.664;2023-04-24T00:02:57;15.90;96.00
52765;DHT22;38650;44.536;18.664;2023-04-24T00:05:23;15.80;96.80
52765;DHT22;38650;44.536;18.664;2023-04-24T00:07:49;15.80;96.90
52765;DHT22;38650;44.536;18.664;2023-04-24T00:10:18;15.80;96.20
52765;DHT22;38650;44.536;18.664;2023-04-24T00:12:43;15.90;96.00
52765;DHT22;38650;44.536;18.664;2023-04-24T00:15:09;15.90;95.80
52765;DHT22;38650;44.536;18.664;2023-04-24T00:17:35;15.90;95.70
52765;DHT22;38650;44.536;18.664;2023-04-24T00:20:01;15.70;98.40
52765;DHT22;38650;44.536;18.664;2023-04-24T00:22:30;15.60;99.90
52765;DHT22;38650;44.536;18.664;2023-04-24T00:24:56;15.50;99.90
52765;DHT22;38650;44.536;18.664;2023-04-24T00:27:21;15.40;99.90
52765;DHT22;38650;44.536;18.664;2023-04-24T00:29:47;15.40;99.90
52765;DHT22;38650;44.536;18.664;2023-04-24T00:32:13;15.40;99.30
52765;DHT22;38650;44.536;18.664;2023-04-24T00:34:39;15.50;99.00
52765;DHT22;38650;44.536;18.664;2023-04-24T00:37:04;15.50;99.40
52765;DHT22;38650;44.536;18.664;2023-04-24T00:39:30;15.50;99.90
52765;DHT22;38650;44.536;18.664;2023-04-24T00:41:56;15.50;99.90
52765;DHT22;38650;44.536;18.664;2023-04-24T00:44:22;15.50;99.90
52765;DHT22;38650;44.536;18.664;2023-04-24T00:46:48;15.40;99.90
52765;DHT22;38650;44.536;18.664;2023-04-24T00:49:20;15.40;99.90
52765;DHT22;38650;44.536;18.664;2023-04-24T00:51:46;15.40;99.90
52765;DHT22;38650;44.536;18.664;2023-04-24T00:54:12;15.40;99.90
52765;DHT22;38650;44.536;18.664;2023-04-24T00:56:38;15.40;99.90
52765;DHT22;38650;44.536;18.664;2023-04-24T00:59:03;15.40;99.90
52765;DHT22;38650;44.536;18.664;2023-04-24T01:01:30;15.40;99.90
52765;DHT22;38650;44.536;18.664;2023-04-24T01:03:55;15.40;99.90
52765;DHT22;38650;44.536;18.664;2023-04-24T01:06:21;15.40;99.90
52765;DHT22;38650;44.536;18.664;2023-04-24T01:08:47;15.30;99.90
52765;DHT22;38650;44.536;18.664;2023-04-24T01:11:13;15.30;99.90
52765;DHT22;38650;44.536;18.664;2023-04-24T01:13:39;15.30;99.90
52765;DHT22;38650;44.536;18.664;2023-04-24T01:16:04;15.30;99.90
52765;DHT22;38650;44.536;18.664;2023-04-24T01:18:30;15.30;99.90
52765;DHT22;38650;44.536;18.664;2023-04-24T01:20:59;15.30;99.90
52765;DHT22;38650;44.536;18.664;2023-04-24T01:23:28;15.30;99.90
52765;DHT22;38650;44.536;18.664;2023-04-24T01:25:54;15.30;99.90
52765;DHT22;38650;44.536;18.664;2023-04-24T01:28:20;15.20;99.90
52765;DHT22;38650;44.536;18.664;2023-04-24T01:30:45;15.20;99.90
52765;DHT22;38650;44.536;18.664;2023-04-24T01:33:11;15.10;99.90
52765;DHT22;38650;44.536;18.664;2023-04-24T01:35:37;15.10;99.90
52765;DHT22;38650;44.536;18.664;2023-04-24T01:38:03;15.10;99.90
52765;DHT22;38650;44.536;18.664;2023-04-24T01:40:29;15.00;99.90
52765;DHT22;38650;44.536;18.664;2023-04-24T01:42:54;15.00;99.80
52765;DHT22;38650;44.536;18.664;2023-04-24T01:45:20;15.00;99.90
52765;DHT22;38650;44.536;18.664;2023-04-24T01:47:46;15.00;99.90
52765;DHT22;38650;44.536;18.664;2023-04-24T01:50:12;14.90;99.90
52765;DHT22;38650;44.536;18.664;2023-04-24T01:52:37;14.90;99.90
52765;DHT22;38650;44.536;18.664;2023-04-24T01:55:03;14.90;99.90
52765;DHT22;38650;44.536;18.664;2023-04-24T01:57:29;14.90;99.90
52765;DHT22;38650;44.536;18.664;2023-04-24T01:59:55;14.80;99.90
52765;DHT22;38650;44.536;18.664;2023-04-24T02:02:21;14.80;99.90
52765;DHT22;38650;44.536;18.664;2023-04-24T02:04:49;14.70;99.90
52765;DHT22;38650;44.536;18.664;2023-04-24T02:07:15;14.60;99.90
52765;DHT22;38650;44.536;18.664;2023-04-24T02:09:40;14.60;99.90
52765;DHT22;38650;44.536;18.664;2023-04-24T02:12:06;14.60;99.90
52765;DHT22;38650;44.536;18.664;2023-04-24T02:14:31;14.50;99.90
52765;DHT22;38650;44.536;18.664;2023-04-24T02:16:57;14.40;99.90
52765;DHT22;38650;44.536;18.664;2023-04-24T02:19:23;14.30;99.90
52765;DHT22;38650;44.536;18.664;2023-04-24T02:21:48;14.30;99.90
52765;DHT22;38650;44.536;18.664;2023-04-24T02:24:14;14.40;99.90
52765;DHT22;38650;44.536;18.664;2023-04-24T02:26:39;14.40;99.90
52765;DHT22;38650;44.536;18.664;2023-04-24T02:29:05;14.40;99.90
52765;DHT22;38650;44.536;18.664;2023-04-24T02:31:30;14.30;99.90
52765;DHT22;38650;44.536;18.664;2023-04-24T02:33:56;14.30;99.90
52765;DHT22;38650;44.536;18.664;2023-04-24T02:36:21;14.20;99.90
52765;DHT22;38650;44.536;18.664;2023-04-24T02:38:47;14.20;99.90
52765;DHT22;38650;44.536;18.664;2023-04-24T02:41:13;14.10;99.90
52765;DHT22;38650;44.536;18.664;2023-04-24T02:43:38;14.10;99.90
52765;DHT22;38650;44.536;18.664;2023-04-24T02:46:04;14.10;99.90
52765;DHT22;38650;44.536;18.664;2023-04-24T02:48:29;14.10;99.90
52765;DHT22;38650;44.536;18.664;2023-04-24T02:50:55;14.10;99.90
52765;DHT22;38650;44.536;18.664;2023-04-24T02:53:21;14.20;99.90
52765;DHT22;38650;44.536;18.664;2023-04-24T02:55:46;14.20;99.90
52765;DHT22;38650;44.536;18.664;2023-04-24T02:58:12;14.30;99.90
52765;DHT22;38650;44.536;18.664;2023-04-24T03:00:38;14.20;99.90
52765;DHT22;38650;44.536;18.664;2023-04-24T03:03:04;14.20;99.90
52765;DHT22;38650;44.536;18.664;2023-04-24T03:05:30;14.20;99.90
52765;DHT22;38650;44.536;18.664;2023-04-24T03:07:56;14.20;99.90
52765;DHT22;38650;44.536;18.664;2023-04-24T03:10:22;14.20;99.90
52765;DHT22;38650;44.536;18.664;2023-04-24T03:12:50;14.20;99.90
52765;DHT22;38650;44.536;18.664;2023-04-24T03:15:15;14.20;99.90
52765;DHT22;38650;44.536;18.664;2023-04-24T03:17:41;14.30;99.90
52765;DHT22;38650;44.536;18.664;2023-04-24T03:20:07;14.30;99.90
52765;DHT22;38650;44.536;18.664;2023-04-24T03:22:33;14.40;99.90
52765;DHT22;38650;44.536;18.664;2023-04-24T03:24:59;14.40;99.90
52765;DHT22;38650;44.536;18.664;2023-04-24T03:27:25;14.40;99.90
52765;DHT22;38650;44.536;18.664;2023-04-24T03:29:50;14.40;99.90
52765;DHT22;38650;44.536;18.664;2023-04-24T03:32:21;14.40;99.90
52765;DHT22;38650;44.536;18.664;2023-04-24T03:34:47;14.40;99.90
52765;DHT22;38650;44.536;18.664;2023-04-24T03:37:13;14.40;99.90
52765;DHT22;38650;44.536;18.664;2023-04-24T03:39:38;14.50;99.90
52765;DHT22;38650;44.536;18.664;2023-04-24T03:42:04;14.40;99.90
52765;DHT22;38650;44.536;18.664;2023-04-24T03:44:29;14.30;99.90
52765;DHT22;38650;44.536;18.664;2023-04-24T03:46:55;14.20;99.90
52765;DHT22;38650;44.536;18.664;2023-04-24T03:49:20;14.30;99.90
52765;DHT22;38650;44.536;18.664;2023-04-24T03:51:47;14.30;99.90
52765;DHT22;38650;44.536;18.664;2023-04-24T03:54:12;14.30;99.90
52765;DHT22;38650;44.536;18.664;2023-04-24T03:56:38;14.20;99.90
52765;DHT22;38650;44.536;18.664;2023-04-24T03:59:04;14.30;99.90
52765;DHT22;38650;44.536;18.664;2023-04-24T04:01:30;14.30;99.90
52765;DHT22;38650;44.536;18.664;2023-04-24T04:03:56;14.30;99.90
52765;DHT22;38650;44.536;18.664;2023-04-24T04:06:21;14.40;99.90
52765;DHT22;38650;44.536;18.664;2023-04-24T04:08:47;14.30;99.90
52765;DHT22;38650;44.536;18.664;2023-04-24T04:11:12;14.30;99.90
52765;DHT22;38650;44.536;18.664;2023-04-24T04:13:38;14.20;99.90
52765;DHT22;38650;44.536;18.664;2023-04-24T04:16:04;14.10;99.90
52765;DHT22;38650;44.536;18.664;2023-04-24T04:18:29;14.10;99.90
52765;DHT22;38650;44.536;18.664;2023-04-24T04:20:55;14.20;99.90
52765;DHT22;38650;44.536;18.664;2023-04-24T04:23:22;14.30;99.90
52765;DHT22;38650;44.536;18.664;2023-04-24T04:25:48;14.40;99.90
52765;DHT22;38650;44.536;18.664;2023-04-24T04:28:13;14.50;99.90
52765;DHT22;38650;44.536;18.664;2023-04-24T04:30:39;14.50;99.90
52765;DHT22;38650;44.536;18.664;2023-04-24T04:33:05;14.60;99.90
52765;DHT22;38650;44.536;18.664;2023-04-24T04:35:31;14.60;99.90
52765;DHT22;38650;44.536;18.664;2023-04-24T04:37:56;14.70;99.90
52765;DHT22;38650;44.536;18.664;2023-04-24T04:40:24;14.60;99.90
52765;DHT22;38650;44.536;18.664;2023-04-24T04:42:50;14.60;99.90
52765;DHT22;38650;44.536;18.664;2023-04-24T04:45:18;14.60;99.90
52765;DHT22;38650;44.536;18.664;2023-04-24T04:47:43;14.60;99.90
52765;DHT22;38650;44.536;18.664;2023-04-24T04:50:09;14.60;99.90
52765;DHT22;38650;44.536;18.664;2023-04-24T04:52:35;14.60;99.90
52765;DHT22;38650;44.536;18.664;2023-04-24T04:55:01;14.60;99.90
52765;DHT22;38650;44.536;18.664;2023-04-24T04:57:27;14.70;99.90
52765;DHT22;38650;44.536;18.664;2023-04-24T04:59:52;14.80;99.90
52765;DHT22;38650;44.536;18.664;2023-04-24T05:02:18;15.00;99.90
52765;DHT22;38650;44.536;18.664;2023-04-24T05:04:44;15.20;99.90
52765;DHT22;38650;44.536;18.664;2023-04-24T05:07:10;15.30;99.90
52765;DHT22;38650;44.536;18.664;2023-04-24T05:09:36;15.40;99.90
52765;DHT22;38650;44.536;18.664;2023-04-24T05:12:02;15.50;99.90
52765;DHT22;38650;44.536;18.664;2023-04-24T05:14:28;15.50;99.90
52765;DHT22;38650;44.536;18.664;2023-04-24T05:16:53;15.50;99.90
52765;DHT22;38650;44.536;18.664;2023-04-24T05:19:19;15.60;99.90
52765;DHT22;38650;44.536;18.664;2023-04-24T05:21:45;15.60;99.90
52765;DHT22;38650;44.536;18.664;2023-04-24T05:24:10;15.70;99.90
52765;DHT22;38650;44.536;18.664;2023-04-24T05:26:36;15.70;99.90
52765;DHT22;38650;44.536;18.664;2023-04-24T05:29:02;15.70;99.90
52765;DHT22;38650;44.536;18.664;2023-04-24T05:31:27;15.70;99.90
52765;DHT22;38650;44.536;18.664;2023-04-24T05:33:53;15.70;99.90
52765;DHT22;38650;44.536;18.664;2023-04-24T05:36:18;15.70;99.90
52765;DHT22;38650;44.536;18.664;2023-04-24T05:38:44;15.60;99.90
52765;DHT22;38650;44.536;18.664;2023-04-24T05:41:09;15.70;99.90
52765;DHT22;38650;44.536;18.664;2023-04-24T05:43:35;15.70;99.90
52765;DHT22;38650;44.536;18.664;2023-04-24T05:46:00;15.60;99.90
52765;DHT22;38650;44.536;18.664;2023-04-24T05:48:26;15.40;99.90
52765;DHT22;38650;44.536;18.664;2023-04-24T05:50:52;15.40;99.90
52765;DHT22;38650;44.536;18.664;2023-04-24T05:53:18;15.40;99.90
52765;DHT22;38650;44.536;18.664;2023-04-24T05:55:43;15.40;99.90
52765;DHT22;38650;44.536;18.664;2023-04-24T05:58:09;15.50;99.90
52765;DHT22;38650;44.536;18.664;2023-04-24T06:00:35;15.40;99.90
52765;DHT22;38650;44.536;18.664;2023-04-24T06:06:04;15.40;99.90
52765;DHT22;38650;44.536;18.664;2023-04-24T06:08:30;15.40;99.90
52765;DHT22;38650;44.536;18.664;2023-04-24T06:10:56;15.50;99.90
52765;DHT22;38650;44.536;18.664;2023-04-24T06:13:22;15.60;99.90
52765;DHT22;38650;44.536;18.664;2023-04-24T06:15:47;15.60;99.90
52765;DHT22;38650;44.536;18.664;2023-04-24T06:18:13;15.60;99.90
52765;DHT22;38650;44.536;18.664;2023-04-24T06:20:38;15.70;99.90
52765;DHT22;38650;44.536;18.664;2023-04-24T06:23:04;15.80;99.90
52765;DHT22;38650;44.536;18.664;2023-04-24T06:25:29;15.90;99.90
52765;DHT22;38650;44.536;18.664;2023-04-24T06:27:55;15.90;99.90
52765;DHT22;38650;44.536;18.664;2023-04-24T06:30:21;16.00;99.90
52765;DHT22;38650;44.536;18.664;2023-04-24T06:32:47;16.00;99.90
52765;DHT22;38650;44.536;18.664;2023-04-24T06:35:13;16.10;99.90
52765;DHT22;38650;44.536;18.664;2023-04-24T06:37:39;16.00;99.90
52765;DHT22;38650;44.536;18.664;2023-04-24T06:40:04;16.00;99.90
52765;DHT22;38650;44.536;18.664;2023-04-24T06:42:30;16.10;99.90
52765;DHT22;38650;44.536;18.664;2023-04-24T06:44:56;16.00;99.90
52765;DHT22;38650;44.536;18.664;2023-04-24T06:47:21;15.90;99.90
52765;DHT22;38650;44.536;18.664;2023-04-24T06:49:47;15.90;99.90
52765;DHT22;38650;44.536;18.664;2023-04-24T06:52:13;16.00;99.90
52765;DHT22;38650;44.536;18.664;2023-04-24T06:54:38;16.10;99.90
52765;DHT22;38650;44.536;18.664;2023-04-24T06:57:04;15.90;99.90
52765;DHT22;38650;44.536;18.664;2023-04-24T06:59:30;15.80;99.90
52765;DHT22;38650;44.536;18.664;2023-04-24T07:01:56;15.90;99.90
52765;DHT22;38650;44.536;18.664;2023-04-24T07:04:21;15.90;99.90
52765;DHT22;38650;44.536;18.664;2023-04-24T07:06:47;16.00;99.90
52765;DHT22;38650;44.536;18.664;2023-04-24T07:09:14;16.10;99.90
52765;DHT22;38650;44.536;18.664;2023-04-24T07:11:47;16.30;99.90
52765;DHT22;38650;44.536;18.664;2023-04-24T07:14:13;16.40;99.90
52765;DHT22;38650;44.536;18.664;2023-04-24T07:16:39;16.40;99.90
52765;DHT22;38650;44.536;18.664;2023-04-24T07:19:05;16.50;99.90
52765;DHT22;38650;44.536;18.664;2023-04-24T07:21:37;16.50;99.90
52765;DHT22;38650;44.536;18.664;2023-04-24T07:24:05;16.40;99.90
52765;DHT22;38650;44.536;18.664;2023-04-24T07:26:34;16.30;99.90
52765;DHT22;38650;44.536;18.664;2023-04-24T07:29:00;16.20;99.90
52765;DHT22;38650;44.536;18.664;2023-04-24T07:31:25;16.10;99.90
52765;DHT22;38650;44.536;18.664;2023-04-24T07:33:51;16.10;99.90
52765;DHT22;38650;44.536;18.664;2023-04-24T07:36:16;16.20;99.90
52765;DHT22;38650;44.536;18.664;2023-04-24T07:38:44;16.20;99.90
52765;DHT22;38650;44.536;18.664;2023-04-24T07:41:10;16.40;99.90
52765;DHT22;38650;44.536;18.664;2023-04-24T07:43:35;16.60;99.90
52765;DHT22;38650;44.536;18.664;2023-04-24T07:46:01;16.70;99.90
52765;DHT22;38650;44.536;18.664;2023-04-24T07:48:26;16.80;99.90
52765;DHT22;38650;44.536;18.664;2023-04-24T07:50:52;16.80;99.90
52765;DHT22;38650;44.536;18.664;2023-04-24T07:53:18;16.90;99.90
52765;DHT22;38650;44.536;18.664;2023-04-24T07:55:44;16.90;99.90
52765;DHT22;38650;44.536;18.664;2023-04-24T07:58:09;17.00;99.90
52765;DHT22;38650;44.536;18.664;2023-04-24T08:00:35;17.20;99.90
52765;DHT22;38650;44.536;18.664;2023-04-24T08:03:00;17.20;99.90
52765;DHT22;38650;44.536;18.664;2023-04-24T08:05:26;17.30;99.90
52765;DHT22;38650;44.536;18.664;2023-04-24T08:07:53;17.40;99.90
52765;DHT22;38650;44.536;18.664;2023-04-24T08:10:22;17.40;99.90
52765;DHT22;38650;44.536;18.664;2023-04-24T08:12:48;17.60;99.90
52765;DHT22;38650;44.536;18.664;2023-04-24T08:15:14;17.60;99.90
52765;DHT22;38650;44.536;18.664;2023-04-24T08:17:39;17.60;99.90
52765;DHT22;38650;44.536;18.664;2023-04-24T08:20:05;17.60;99.90
52765;DHT22;38650;44.536;18.664;2023-04-24T08:22:35;17.60;99.90
52765;DHT22;38650;44.536;18.664;2023-04-24T08:25:01;17.70;99.90
52765;DHT22;38650;44.536;18.664;2023-04-24T08:27:27;17.90;99.90
52765;DHT22;38650;44.536;18.664;2023-04-24T08:29:53;17.90;99.90
52765;DHT22;38650;44.536;18.664;2023-04-24T08:32:19;18.10;99.90
52765;DHT22;38650;44.536;18.664;2023-04-24T08:34:44;18.30;99.90
52765;DHT22;38650;44.536;18.664;2023-04-24T08:37:10;18.40;99.90
52765;DHT22;38650;44.536;18.664;2023-04-24T08:39:36;18.30;99.90
52765;DHT22;38650;44.536;18.664;2023-04-24T08:42:01;18.30;99.90
52765;DHT22;38650;44.536;18.664;2023-04-24T08:44:31;18.30;99.90
52765;DHT22;38650;44.536;18.664;2023-04-24T08:46:57;18.60;99.90
52765;DHT22;38650;44.536;18.664;2023-04-24T08:49:23;18.70;99.90
52765;DHT22;38650;44.536;18.664;2023-04-24T08:51:49;18.90;99.90
52765;DHT22;38650;44.536;18.664;2023-04-24T08:54:15;19.20;99.90
52765;DHT22;38650;44.536;18.664;2023-04-24T08:56:43;19.50;99.30
52765;DHT22;38650;44.536;18.664;2023-04-24T08:59:09;19.70;99.00
52765;DHT22;38650;44.536;18.664;2023-04-24T09:01:35;19.80;97.30
52765;DHT22;38650;44.536;18.664;2023-04-24T09:04:02;19.90;94.10
52765;DHT22;38650;44.536;18.664;2023-04-24T09:06:29;19.80;91.00
52765;DHT22;38650;44.536;18.664;2023-04-24T09:08:55;19.90;92.50
52765;DHT22;38650;44.536;18.664;2023-04-24T09:11:22;20.00;89.60
52765;DHT22;38650;44.536;18.664;2023-04-24T09:13:49;20.00;82.40
52765;DHT22;38650;44.536;18.664;2023-04-24T09:16:15;20.20;78.60
52765;DHT22;38650;44.536;18.664;2023-04-24T09:18:40;20.30;79.10
52765;DHT22;38650;44.536;18.664;2023-04-24T09:21:07;20.40;75.30
52765;DHT22;38650;44.536;18.664;2023-04-24T09:23:33;20.50;70.70
52765;DHT22;38650;44.536;18.664;2023-04-24T09:25:59;20.60;69.10
52765;DHT22;38650;44.536;18.664;2023-04-24T09:28:36;20.80;70.00
52765;DHT22;38650;44.536;18.664;2023-04-24T09:31:03;20.80;67.70
52765;DHT22;38650;44.536;18.664;2023-04-24T09:33:29;20.80;66.60
52765;DHT22;38650;44.536;18.664;2023-04-24T09:35:54;20.90;66.00
52765;DHT22;38650;44.536;18.664;2023-04-24T09:38:30;21.10;66.10
52765;DHT22;38650;44.536;18.664;2023-04-24T09:40:57;21.10;61.90
52765;DHT22;38650;44.536;18.664;2023-04-24T09:43:24;21.10;62.40
52765;DHT22;38650;44.536;18.664;2023-04-24T09:45:51;21.30;60.50
52765;DHT22;38650;44.536;18.664;2023-04-24T09:48:20;21.40;60.40
52765;DHT22;38650;44.536;18.664;2023-04-24T09:50:54;21.40;60.30
52765;DHT22;38650;44.536;18.664;2023-04-24T09:53:23;21.50;62.60
52765;DHT22;38650;44.536;18.664;2023-04-24T09:55:49;21.50;58.30
52765;DHT22;38650;44.536;18.664;2023-04-24T09:58:15;21.40;56.80
52765;DHT22;38650;44.536;18.664;2023-04-24T10:00:41;21.20;57.80
52765;DHT22;38650;44.536;18.664;2023-04-24T10:03:07;21.20;58.40
52765;DHT22;38650;44.536;18.664;2023-04-24T10:05:36;21.30;56.90
52765;DHT22;38650;44.536;18.664;2023-04-24T10:08:03;21.40;56.50
52765;DHT22;38650;44.536;18.664;2023-04-24T10:10:30;21.40;57.60
52765;DHT22;38650;44.536;18.664;2023-04-24T10:12:59;21.40;57.00
52765;DHT22;38650;44.536;18.664;2023-04-24T10:15:26;21.50;55.10
52765;DHT22;38650;44.536;18.664;2023-04-24T10:17:51;21.70;57.00
52765;DHT22;38650;44.536;18.664;2023-04-24T10:22:56;22.10;58.80
52765;DHT22;38650;44.536;18.664;2023-04-24T10:25:23;22.30;55.10
52765;DHT22;38650;44.536;18.664;2023-04-24T10:27:51;22.50;54.00
52765;DHT22;38650;44.536;18.664;2023-04-24T10:30:17;22.60;54.70
52765;DHT22;38650;44.536;18.664;2023-04-24T10:32:43;22.90;57.20
52765;DHT22;38650;44.536;18.664;2023-04-24T10:35:10;23.00;56.00
52765;DHT22;38650;44.536;18.664;2023-04-24T10:37:44;23.20;52.90
52765;DHT22;38650;44.536;18.664;2023-04-24T10:40:11;23.40;51.00
52765;DHT22;38650;44.536;18.664;2023-04-24T10:42:40;23.60;52.20
52765;DHT22;38650;44.536;18.664;2023-04-24T10:45:15;23.80;53.50
52765;DHT22;38650;44.536;18.664;2023-04-24T10:47:41;24.00;50.50
52765;DHT22;38650;44.536;18.664;2023-04-24T10:50:10;24.10;50.30
52765;DHT22;38650;44.536;18.664;2023-04-24T10:52:48;24.20;54.40
52765;DHT22;38650;44.536;18.664;2023-04-24T10:55:16;24.30;51.20
52765;DHT22;38650;44.536;18.664;2023-04-24T10:58:03;24.20;48.60
52765;DHT22;38650;44.536;18.664;2023-04-24T11:00:29;24.40;51.00
52765;DHT22;38650;44.536;18.664;2023-04-24T11:02:54;24.30;47.60
52765;DHT22;38650;44.536;18.664;2023-04-24T11:05:21;24.20;48.40
52765;DHT22;38650;44.536;18.664;2023-04-24T11:10:30;23.60;48.20
52765;DHT22;38650;44.536;18.664;2023-04-24T11:12:56;23.70;49.40
52765;DHT22;38650;44.536;18.664;2023-04-24T11:15:22;23.70;46.50
52765;DHT22;38650;44.536;18.664;2023-04-24T11:17:47;23.60;47.20
52765;DHT22;38650;44.536;18.664;2023-04-24T11:20:16;23.80;49.70
52765;DHT22;38650;44.536;18.664;2023-04-24T11:22:42;24.00;47.10
52765;DHT22;38650;44.536;18.664;2023-04-24T11:25:08;24.10;47.70
52765;DHT22;38650;44.536;18.664;2023-04-24T11:27:43;24.00;47.60
52765;DHT22;38650;44.536;18.664;2023-04-24T11:30:10;24.10;49.70
52765;DHT22;38650;44.536;18.664;2023-04-24T11:32:39;24.20;48.20
52765;DHT22;38650;44.536;18.664;2023-04-24T11:37:36;24.60;47.80
52765;DHT22;38650;44.536;18.664;2023-04-24T11:40:01;24.80;47.10
52765;DHT22;38650;44.536;18.664;2023-04-24T11:42:27;25.00;44.10
52765;DHT22;38650;44.536;18.664;2023-04-24T11:44:53;24.90;45.70
52765;DHT22;38650;44.536;18.664;2023-04-24T11:47:38;24.90;44.50
52765;DHT22;38650;44.536;18.664;2023-04-24T11:50:05;24.60;42.10
52765;DHT22;38650;44.536;18.664;2023-04-24T11:52:31;24.30;42.40
52765;DHT22;38650;44.536;18.664;2023-04-24T11:54:57;24.20;42.40
52765;DHT22;38650;44.536;18.664;2023-04-24T11:57:24;24.20;42.50
52765;DHT22;38650;44.536;18.664;2023-04-24T11:59:51;24.30;43.20
52765;DHT22;38650;44.536;18.664;2023-04-24T12:02:21;24.30;42.90
52765;DHT22;38650;44.536;18.664;2023-04-24T12:04:46;24.40;42.40
52765;DHT22;38650;44.536;18.664;2023-04-24T12:07:12;24.40;42.90
52765;DHT22;38650;44.536;18.664;2023-04-24T12:09:44;24.20;43.80
52765;DHT22;38650;44.536;18.664;2023-04-24T12:12:14;24.20;42.90
52765;DHT22;38650;44.536;18.664;2023-04-24T12:14:44;24.20;42.80
52765;DHT22;38650;44.536;18.664;2023-04-24T12:17:09;24.30;42.10
52765;DHT22;38650;44.536;18.664;2023-04-24T12:19:35;24.00;42.60
52765;DHT22;38650;44.536;18.664;2023-04-24T12:22:01;24.00;42.70
52765;DHT22;38650;44.536;18.664;2023-04-24T12:24:28;24.10;41.80
52765;DHT22;38650;44.536;18.664;2023-04-24T12:26:53;24.20;42.70
52765;DHT22;38650;44.536;18.664;2023-04-24T12:29:20;24.20;41.60
52765;DHT22;38650;44.536;18.664;2023-04-24T12:31:46;24.20;42.30
52765;DHT22;38650;44.536;18.664;2023-04-24T12:34:21;24.10;41.60
52765;DHT22;38650;44.536;18.664;2023-04-24T12:36:47;24.10;42.00
52765;DHT22;38650;44.536;18.664;2023-04-24T12:39:19;24.30;42.30
52765;DHT22;38650;44.536;18.664;2023-04-24T12:41:50;24.80;43.00
52765;DHT22;38650;44.536;18.664;2023-04-24T12:44:15;25.20;42.20
52765;DHT22;38650;44.536;18.664;2023-04-24T12:46:41;25.10;42.00
52765;DHT22;38650;44.536;18.664;2023-04-24T12:49:06;25.10;41.80
52765;DHT22;38650;44.536;18.664;2023-04-24T12:51:32;25.20;41.30
52765;DHT22;38650;44.536;18.664;2023-04-24T12:53:57;25.20;42.20
52765;DHT22;38650;44.536;18.664;2023-04-24T12:56:23;25.30;40.80
52765;DHT22;38650;44.536;18.664;2023-04-24T12:58:49;25.00;40.60
52765;DHT22;38650;44.536;18.664;2023-04-24T13:01:16;24.90;41.60
52765;DHT22;38650;44.536;18.664;2023-04-24T13:03:42;24.30;41.90
52765;DHT22;38650;44.536;18.664;2023-04-24T13:06:08;24.00;42.70
52765;DHT22;38650;44.536;18.664;2023-04-24T13:08:34;24.20;41.60
52765;DHT22;38650;44.536;18.664;2023-04-24T13:10:59;24.60;42.10
52765;DHT22;38650;44.536;18.664;2023-04-24T13:13:25;24.70;41.00
52765;DHT22;38650;44.536;18.664;2023-04-24T13:15:50;24.80;42.30
52765;DHT22;38650;44.536;18.664;2023-04-24T13:18:16;25.00;41.00
52765;DHT22;38650;44.536;18.664;2023-04-24T13:20:41;25.20;41.30
52765;DHT22;38650;44.536;18.664;2023-04-24T13:23:07;25.10;40.80
52765;DHT22;38650;44.536;18.664;2023-04-24T13:25:34;25.00;40.60
52765;DHT22;38650;44.536;18.664;2023-04-24T13:28:00;25.00;40.70
52765;DHT22;38650;44.536;18.664;2023-04-24T13:30:25;25.10;41.40
52765;DHT22;38650;44.536;18.664;2023-04-24T13:32:51;25.10;40.80
52765;DHT22;38650;44.536;18.664;2023-04-24T13:35:17;25.10;39.70
52765;DHT22;38650;44.536;18.664;2023-04-24T13:37:42;25.20;40.80
52765;DHT22;38650;44.536;18.664;2023-04-24T13:40:08;25.20;41.90
52765;DHT22;38650;44.536;18.664;2023-04-24T13:42:34;25.30;41.50
52765;DHT22;38650;44.536;18.664;2023-04-24T13:44:59;25.70;41.40
52765;DHT22;38650;44.536;18.664;2023-04-24T13:47:25;25.60;40.00
52765;DHT22;38650;44.536;18.664;2023-04-24T13:49:50;25.50;41.20
52765;DHT22;38650;44.536;18.664;2023-04-24T13:52:16;25.40;40.90
52765;DHT22;38650;44.536;18.664;2023-04-24T13:54:42;24.90;40.90
52765;DHT22;38650;44.536;18.664;2023-04-24T13:57:07;24.60;42.40
52765;DHT22;38650;44.536;18.664;2023-04-24T13:59:33;24.20;42.30
52765;DHT22;38650;44.536;18.664;2023-04-24T14:01:58;23.90;42.50
52765;DHT22;38650;44.536;18.664;2023-04-24T14:04:24;23.70;42.70
52765;DHT22;38650;44.536;18.664;2023-04-24T14:06:50;23.60;42.60
52765;DHT22;38650;44.536;18.664;2023-04-24T14:09:16;23.70;44.60
52765;DHT22;38650;44.536;18.664;2023-04-24T14:11:41;23.80;42.80
52765;DHT22;38650;44.536;18.664;2023-04-24T14:14:07;24.00;43.30
52765;DHT22;38650;44.536;18.664;2023-04-24T14:16:33;24.20;43.20
52765;DHT22;38650;44.536;18.664;2023-04-24T14:19:00;24.30;43.30
52765;DHT22;38650;44.536;18.664;2023-04-24T14:21:25;24.40;42.80
52765;DHT22;38650;44.536;18.664;2023-04-24T14:23:51;24.30;43.10
52765;DHT22;38650;44.536;18.664;2023-04-24T14:26:16;24.30;42.70
52765;DHT22;38650;44.536;18.664;2023-04-24T14:28:42;24.30;43.10
52765;DHT22;38650;44.536;18.664;2023-04-24T14:31:07;24.40;43.10
52765;DHT22;38650;44.536;18.664;2023-04-24T14:33:34;24.40;43.80
52765;DHT22;38650;44.536;18.664;2023-04-24T14:36:00;24.30;43.50
52765;DHT22;38650;44.536;18.664;2023-04-24T14:38:27;24.50;43.60
52765;DHT22;38650;44.536;18.664;2023-04-24T14:40:53;24.50;42.30
52765;DHT22;38650;44.536;18.664;2023-04-24T14:43:18;24.40;43.00
52765;DHT22;38650;44.536;18.664;2023-04-24T14:45:44;24.40;42.50
52765;DHT22;38650;44.536;18.664;2023-04-24T14:48:10;24.30;41.90
52765;DHT22;38650;44.536;18.664;2023-04-24T14:50:36;24.20;40.80
52765;DHT22;38650;44.536;18.664;2023-04-24T14:53:02;23.70;41.10
52765;DHT22;38650;44.536;18.664;2023-04-24T14:55:27;23.70;42.00
52765;DHT22;38650;44.536;18.664;2023-04-24T14:57:54;23.50;41.80
52765;DHT22;38650;44.536;18.664;2023-04-24T15:00:19;23.60;42.10
52765;DHT22;38650;44.536;18.664;2023-04-24T15:02:45;23.60;41.60
52765;DHT22;38650;44.536;18.664;2023-04-24T15:05:11;23.60;42.40
52765;DHT22;38650;44.536;18.664;2023-04-24T15:07:37;23.50;42.00
52765;DHT22;38650;44.536;18.664;2023-04-24T15:10:03;23.50;41.60
52765;DHT22;38650;44.536;18.664;2023-04-24T15:12:28;23.40;42.20
52765;DHT22;38650;44.536;18.664;2023-04-24T15:14:55;23.20;42.20
52765;DHT22;38650;44.536;18.664;2023-04-24T15:17:20;23.20;42.30
52765;DHT22;38650;44.536;18.664;2023-04-24T15:19:46;23.20;42.50